sensor_id;sensor_type;location;lat;lon;timestamp;pressure;altitude;pressure_sealevel;temperature;humidity
141;BME280;65;48.778;9.160;2023-10-19T00:00:35;96924.06;;;11.21;100.00
141;BME280;65;48.778;9.160;2023-10-19T00:03:23;96922.94;;;11.14;100.00
141;BME280;65;48.778;9.160;2023-10-19T00:06:09;96912.88;;;11.08;100.00
141;BME280;65;48.778;9.160;2023-10-19T00:08:56;96913.41;;;11.02;100.00
141;BME280;65;48.778;9.160;2023-10-19T00:11:41;96917.72;;;11.03;100.00
141;BME280;65;48.778;9.160;2023-10-19T00:14:28;96904.38;;;11.04;100.00
141;BME280;65;48.778;9.160;2023-10-19T00:17:13;96908.13;;;11.02;100.00
141;BME280;65;48.778;9.160;2023-10-19T00:20:00;96904.63;;;11.01;100.00
141;BME280;65;48.778;9.160;2023-10-19T00:23:05;96908.25;;;11.00;100.00
141;BME280;65;48.778;9.160;2023-10-19T00:25:51;96913.28;;;11.03;100.00
141;BME280;65;48.778;9.160;2023-10-19T00:28:37;96903.72;;;11.12;100.00
141;BME280;65;48.778;9.160;2023-10-19T00:31:25;96913.53;;;11.31;100.00
141;BME280;65;48.778;9.160;2023-10-19T00:34:14;96913.44;;;11.42;100.00
141;BME280;65;48.778;9.160;2023-10-19T00:37:00;96918.25;;;11.58;100.00
141;BME280;65;48.778;9.160;2023-10-19T00:39:54;96907.22;;;11.83;100.00
141;BME280;65;48.778;9.160;2023-10-19T00:42:41;96898.03;;;11.97;100.00
141;BME280;65;48.778;9.160;2023-10-19T00:45:31;96901.38;;;11.99;100.00
141;BME280;65;48.778;9.160;2023-10-19T00:48:19;96888.00;;;12.00;100.00
141;BME280;65;48.778;9.160;2023-10-19T00:51:08;96888.84;;;12.01;100.00
141;BME280;65;48.778;9.160;2023-10-19T00:54:17;96864.88;;;12.02;100.00
141;BME280;65;48.778;9.160;2023-10-19T00:57:12;96870.88;;;12.04;100.00
141;BME280;65;48.778;9.160;2023-10-19T00:59:58;96865.44;;;12.06;100.00
141;BME280;65;48.778;9.160;2023-10-19T01:02:57;96868.22;;;12.04;100.00
141;BME280;65;48.778;9.160;2023-10-19T01:05:50;96852.75;;;12.00;100.00
141;BME280;65;48.778;9.160;2023-10-19T01:08:39;96857.47;;;12.06;100.00
141;BME280;65;48.778;9.160;2023-10-19T01:11:28;96842.84;;;12.12;100.00
141;BME280;65;48.778;9.160;2023-10-19T01:14:21;96844.66;;;12.11;100.00
141;BME280;65;48.778;9.160;2023-10-19T01:17:07;96835.88;;;12.11;100.00
141;BME280;65;48.778;9.160;2023-10-19T01:19:57;96825.88;;;12.24;100.00
141;BME280;65;48.778;9.160;2023-10-19T01:22:49;96825.28;;;12.40;100.00
141;BME280;65;48.778;9.160;2023-10-19T01:25:57;96824.28;;;12.50;100.00
141;BME280;65;48.778;9.160;2023-10-19T01:28:44;96817.16;;;12.51;100.00
141;BME280;65;48.778;9.160;2023-10-19T01:31:33;96810.16;;;12.69;100.00
141;BME280;65;48.778;9.160;2023-10-19T01:34:24;96806.81;;;12.77;100.00
141;BME280;65;48.778;9.160;2023-10-19T01:37:12;96809.59;;;12.75;100.00
141;BME280;65;48.778;9.160;2023-10-19T01:39:58;96816.44;;;12.78;100.00
141;BME280;65;48.778;9.160;2023-10-19T01:42:44;96812.94;;;12.67;100.00
141;BME280;65;48.778;9.160;2023-10-19T01:45:29;96801.78;;;12.74;100.00
141;BME280;65;48.778;9.160;2023-10-19T01:48:15;96799.69;;;12.67;100.00
141;BME280;65;48.778;9.160;2023-10-19T01:51:02;96805.13;;;12.76;100.00
141;BME280;65;48.778;9.160;2023-10-19T01:53:52;96797.59;;;12.81;100.00
141;BME280;65;48.778;9.160;2023-10-19T01:56:37;96795.06;;;12.79;100.00
141;BME280;65;48.778;9.160;2023-10-19T01:59:24;96791.88;;;12.76;100.00
141;BME280;65;48.778;9.160;2023-10-19T02:02:12;96788.69;;;12.72;100.00
141;BME280;65;48.778;9.160;2023-10-19T02:04:58;96786.97;;;12.71;100.00
141;BME280;65;48.778;9.160;2023-10-19T02:07:45;96789.63;;;12.71;100.00
141;BME280;65;48.778;9.160;2023-10-19T02:10:31;96785.88;;;12.74;100.00
141;BME280;65;48.778;9.160;2023-10-19T02:13:19;96786.03;;;12.72;100.00
141;BME280;65;48.778;9.160;2023-10-19T02:16:05;96779.03;;;12.71;100.00
141;BME280;65;48.778;9.160;2023-10-19T02:18:52;96781.69;;;12.71;100.00
141;BME280;65;48.778;9.160;2023-10-19T02:21:38;96775.00;;;12.67;100.00
141;BME280;65;48.778;9.160;2023-10-19T02:24:27;96770.97;;;12.63;100.00
141;BME280;65;48.778;9.160;2023-10-19T02:27:13;96770.28;;;12.61;100.00
141;BME280;65;48.778;9.160;2023-10-19T02:29:59;96770.03;;;12.54;100.00
141;BME280;65;48.778;9.160;2023-10-19T02:32:54;96764.47;;;12.48;100.00
141;BME280;65;48.778;9.160;2023-10-19T02:35:40;96753.06;;;12.38;100.00
141;BME280;65;48.778;9.160;2023-10-19T02:38:26;96755.88;;;12.26;100.00
141;BME280;65;48.778;9.160;2023-10-19T02:41:12;96751.72;;;12.14;100.00
141;BME280;65;48.778;9.160;2023-10-19T02:43:58;96760.63;;;12.03;100.00
141;BME280;65;48.778;9.160;2023-10-19T02:46:49;96762.16;;;11.87;100.00
141;BME280;65;48.778;9.160;2023-10-19T02:49:36;96763.13;;;11.66;100.00
141;BME280;65;48.778;9.160;2023-10-19T02:52:24;96755.84;;;11.49;100.00
141;BME280;65;48.778;9.160;2023-10-19T02:55:11;96749.97;;;11.36;100.00
141;BME280;65;48.778;9.160;2023-10-19T02:57:56;96749.13;;;11.26;100.00
141;BME280;65;48.778;9.160;2023-10-19T03:00:50;96751.19;;;11.13;100.00
141;BME280;65;48.778;9.160;2023-10-19T03:03:37;96748.41;;;11.04;100.00
141;BME280;65;48.778;9.160;2023-10-19T03:06:23;96747.38;;;10.96;100.00
141;BME280;65;48.778;9.160;2023-10-19T03:09:10;96746.66;;;10.94;100.00
141;BME280;65;48.778;9.160;2023-10-19T03:11:59;96739.84;;;10.91;100.00
141;BME280;65;48.778;9.160;2023-10-19T03:14:46;96736.75;;;10.86;100.00
141;BME280;65;48.778;9.160;2023-10-19T03:17:34;96734.81;;;10.88;100.00
141;BME280;65;48.778;9.160;2023-10-19T03:20:21;96733.81;;;10.80;100.00
141;BME280;65;48.778;9.160;2023-10-19T03:23:10;96733.69;;;10.81;100.00
141;BME280;65;48.778;9.160;2023-10-19T03:25:56;96728.94;;;10.75;100.00
141;BME280;65;48.778;9.160;2023-10-19T03:29:03;96732.81;;;10.71;100.00
141;BME280;65;48.778;9.160;2023-10-19T03:32:00;96729.06;;;10.73;100.00
141;BME280;65;48.778;9.160;2023-10-19T03:34:45;96720.19;;;10.74;100.00
141;BME280;65;48.778;9.160;2023-10-19T03:37:36;96722.25;;;10.71;100.00
141;BME280;65;48.778;9.160;2023-10-19T03:40:22;96729.63;;;10.67;100.00
141;BME280;65;48.778;9.160;2023-10-19T03:43:15;96717.25;;;10.68;100.00
141;BME280;65;48.778;9.160;2023-10-19T03:46:07;96717.78;;;10.62;100.00
141;BME280;65;48.778;9.160;2023-10-19T03:49:13;96713.72;;;10.58;100.00
141;BME280;65;48.778;9.160;2023-10-19T03:51:59;96716.06;;;10.51;100.00
141;BME280;65;48.778;9.160;2023-10-19T03:55:04;96711.59;;;10.42;100.00
141;BME280;65;48.778;9.160;2023-10-19T03:57:56;96690.69;;;10.39;100.00
141;BME280;65;48.778;9.160;2023-10-19T04:00:42;96705.00;;;10.36;100.00
141;BME280;65;48.778;9.160;2023-10-19T04:03:29;96700.41;;;10.38;100.00
141;BME280;65;48.778;9.160;2023-10-19T04:06:16;96689.91;;;10.48;100.00
141;BME280;65;48.778;9.160;2023-10-19T04:09:02;96687.56;;;10.55;100.00
141;BME280;65;48.778;9.160;2023-10-19T04:11:51;96671.06;;;10.62;100.00
141;BME280;65;48.778;9.160;2023-10-19T04:14:36;96679.41;;;10.67;100.00
141;BME280;65;48.778;9.160;2023-10-19T04:17:24;96680.81;;;10.71;100.00
141;BME280;65;48.778;9.160;2023-10-19T04:20:10;96672.47;;;10.76;100.00
141;BME280;65;48.778;9.160;2023-10-19T04:23:02;96672.22;;;10.79;100.00
141;BME280;65;48.778;9.160;2023-10-19T04:25:56;96663.03;;;10.83;100.00
141;BME280;65;48.778;9.160;2023-10-19T04:28:43;96662.19;;;10.83;100.00
141;BME280;65;48.778;9.160;2023-10-19T04:31:38;96669.16;;;10.84;100.00
141;BME280;65;48.778;9.160;2023-10-19T04:34:34;96665.00;;;10.91;100.00
141;BME280;65;48.778;9.160;2023-10-19T04:37:22;96664.16;;;10.90;100.00
141;BME280;65;48.778;9.160;2023-10-19T04:40:12;96655.41;;;10.90;100.00
141;BME280;65;48.778;9.160;2023-10-19T04:42:58;96660.00;;;10.88;100.00
141;BME280;65;48.778;9.160;2023-10-19T04:45:43;96657.63;;;10.85;100.00
141;BME280;65;48.778;9.160;2023-10-19T04:48:31;96649.81;;;10.83;100.00
141;BME280;65;48.778;9.160;2023-10-19T04:51:17;96661.38;;;10.82;100.00
141;BME280;65;48.778;9.160;2023-10-19T04:54:03;96649.00;;;10.83;100.00
141;BME280;65;48.778;9.160;2023-10-19T04:56:48;96645.66;;;10.81;100.00
141;BME280;65;48.778;9.160;2023-10-19T04:59:36;96641.75;;;10.75;100.00
141;BME280;65;48.778;9.160;2023-10-19T05:02:22;96636.03;;;10.70;100.00
141;BME280;65;48.778;9.160;2023-10-19T05:05:08;96639.25;;;10.73;100.00
141;BME280;65;48.778;9.160;2023-10-19T05:07:54;96639.38;;;10.72;100.00
141;BME280;65;48.778;9.160;2023-10-19T05:10:40;96641.03;;;10.73;100.00
141;BME280;65;48.778;9.160;2023-10-19T05:13:27;96638.13;;;10.76;100.00
141;BME280;65;48.778;9.160;2023-10-19T05:16:13;96646.34;;;10.73;100.00
141;BME280;65;48.778;9.160;2023-10-19T05:18:59;96654.81;;;10.67;100.00
141;BME280;65;48.778;9.160;2023-10-19T05:21:45;96647.69;;;10.58;100.00
141;BME280;65;48.778;9.160;2023-10-19T05:24:31;96650.16;;;10.50;100.00
141;BME280;65;48.778;9.160;2023-10-19T05:27:18;96648.91;;;10.44;100.00
141;BME280;65;48.778;9.160;2023-10-19T05:30:05;96657.94;;;10.41;100.00
141;BME280;65;48.778;9.160;2023-10-19T05:32:55;96654.56;;;10.39;100.00
141;BME280;65;48.778;9.160;2023-10-19T05:35:41;96652.88;;;10.38;100.00
141;BME280;65;48.778;9.160;2023-10-19T05:38:27;96652.88;;;10.38;100.00
141;BME280;65;48.778;9.160;2023-10-19T05:41:12;96652.03;;;10.38;100.00
141;BME280;65;48.778;9.160;2023-10-19T05:43:58;96651.91;;;10.39;100.00
141;BME280;65;48.778;9.160;2023-10-19T05:46:44;96654.47;;;10.51;100.00
141;BME280;65;48.778;9.160;2023-10-19T05:49:32;96646.56;;;10.51;100.00
141;BME280;65;48.778;9.160;2023-10-19T05:52:18;96650.31;;;10.58;100.00
141;BME280;65;48.778;9.160;2023-10-19T05:55:04;96646.31;;;10.63;100.00
141;BME280;65;48.778;9.160;2023-10-19T05:57:50;96653.69;;;10.69;100.00
141;BME280;65;48.778;9.160;2023-10-19T06:00:36;96649.81;;;10.73;100.00
141;BME280;65;48.778;9.160;2023-10-19T06:03:22;96653.97;;;10.76;100.00
141;BME280;65;48.778;9.160;2023-10-19T06:06:07;96657.06;;;10.81;100.00
141;BME280;65;48.778;9.160;2023-10-19T06:08:53;96657.34;;;10.88;100.00
141;BME280;65;48.778;9.160;2023-10-19T06:11:39;96655.97;;;10.93;100.00
141;BME280;65;48.778;9.160;2023-10-19T06:14:28;96667.00;;;10.98;100.00
141;BME280;65;48.778;9.160;2023-10-19T06:17:15;96671.59;;;11.06;100.00
141;BME280;65;48.778;9.160;2023-10-19T06:20:06;96668.41;;;11.12;100.00
141;BME280;65;48.778;9.160;2023-10-19T06:22:55;96673.69;;;11.22;100.00
141;BME280;65;48.778;9.160;2023-10-19T06:25:41;96673.13;;;11.28;100.00
141;BME280;65;48.778;9.160;2023-10-19T06:28:28;96675.22;;;11.34;100.00
141;BME280;65;48.778;9.160;2023-10-19T06:31:14;96675.63;;;11.39;100.00
141;BME280;65;48.778;9.160;2023-10-19T06:34:01;96673.56;;;11.43;100.00
141;BME280;65;48.778;9.160;2023-10-19T06:36:46;96674.38;;;11.43;100.00
141;BME280;65;48.778;9.160;2023-10-19T06:39:32;96676.75;;;11.46;100.00
141;BME280;65;48.778;9.160;2023-10-19T06:42:18;96681.06;;;11.47;100.00
141;BME280;65;48.778;9.160;2023-10-19T06:45:04;96681.06;;;11.47;100.00
141;BME280;65;48.778;9.160;2023-10-19T06:47:50;96679.94;;;11.50;100.00
141;BME280;65;48.778;9.160;2023-10-19T06:50:37;96669.91;;;11.53;100.00
141;BME280;65;48.778;9.160;2023-10-19T06:53:23;96671.34;;;11.57;100.00
141;BME280;65;48.778;9.160;2023-10-19T06:56:09;96673.16;;;11.57;100.00
141;BME280;65;48.778;9.160;2023-10-19T06:58:56;96673.56;;;11.62;100.00
141;BME280;65;48.778;9.160;2023-10-19T07:01:42;96664.50;;;11.64;100.00
141;BME280;65;48.778;9.160;2023-10-19T07:04:29;96660.03;;;11.75;100.00
141;BME280;65;48.778;9.160;2023-10-19T07:07:18;96668.97;;;11.64;100.00
141;BME280;65;48.778;9.160;2023-10-19T07:10:04;96674.25;;;11.73;100.00
141;BME280;65;48.778;9.160;2023-10-19T07:13:02;96662.69;;;11.75;100.00
141;BME280;65;48.778;9.160;2023-10-19T07:15:48;96658.66;;;11.80;100.00
141;BME280;65;48.778;9.160;2023-10-19T07:18:34;96665.91;;;11.78;100.00
141;BME280;65;48.778;9.160;2023-10-19T07:21:22;96669.50;;;11.77;100.00
141;BME280;65;48.778;9.160;2023-10-19T07:24:08;96661.44;;;11.79;100.00
141;BME280;65;48.778;9.160;2023-10-19T07:26:56;96662.56;;;11.86;100.00
141;BME280;65;48.778;9.160;2023-10-19T07:29:50;96670.34;;;11.97;100.00
141;BME280;65;48.778;9.160;2023-10-19T07:32:36;96662.09;;;12.00;100.00
141;BME280;65;48.778;9.160;2023-10-19T07:35:27;96654.41;;;12.07;100.00
141;BME280;65;48.778;9.160;2023-10-19T07:38:14;96654.91;;;12.29;100.00
141;BME280;65;48.778;9.160;2023-10-19T07:41:00;96653.56;;;12.53;100.00
141;BME280;65;48.778;9.160;2023-10-19T07:43:49;96654.88;;;12.66;100.00
141;BME280;65;48.778;9.160;2023-10-19T07:46:34;96645.81;;;12.42;100.00
141;BME280;65;48.778;9.160;2023-10-19T07:49:21;96647.88;;;12.75;100.00
141;BME280;65;48.778;9.160;2023-10-19T07:52:07;96646.47;;;12.98;100.00
141;BME280;65;48.778;9.160;2023-10-19T07:54:53;96641.47;;;12.95;100.00
141;BME280;65;48.778;9.160;2023-10-19T07:57:39;96645.28;;;13.11;100.00
141;BME280;65;48.778;9.160;2023-10-19T08:00:28;96637.13;;;13.22;100.00
141;BME280;65;48.778;9.160;2023-10-19T08:03:15;96641.91;;;13.18;100.00
141;BME280;65;48.778;9.160;2023-10-19T08:06:01;96642.19;;;13.15;100.00
141;BME280;65;48.778;9.160;2023-10-19T08:08:47;96643.72;;;13.18;100.00
141;BME280;65;48.778;9.160;2023-10-19T08:11:33;96643.13;;;13.24;100.00
141;BME280;65;48.778;9.160;2023-10-19T08:14:19;96635.78;;;13.36;100.00
141;BME280;65;48.778;9.160;2023-10-19T08:17:05;96634.03;;;13.44;100.00
141;BME280;65;48.778;9.160;2023-10-19T08:19:54;96636.75;;;13.52;100.00
141;BME280;65;48.778;9.160;2023-10-19T08:22:40;96644.19;;;13.49;100.00
141;BME280;65;48.778;9.160;2023-10-19T08:25:26;96638.72;;;13.50;100.00
141;BME280;65;48.778;9.160;2023-10-19T08:28:14;96644.47;;;13.64;100.00
141;BME280;65;48.778;9.160;2023-10-19T08:31:01;96639.38;;;13.70;100.00
141;BME280;65;48.778;9.160;2023-10-19T08:33:47;96642.16;;;13.86;100.00
141;BME280;65;48.778;9.160;2023-10-19T08:36:33;96647.81;;;14.09;100.00
141;BME280;65;48.778;9.160;2023-10-19T08:39:19;96642.19;;;14.12;100.00
141;BME280;65;48.778;9.160;2023-10-19T08:42:06;96622.69;;;14.30;100.00
141;BME280;65;48.778;9.160;2023-10-19T08:44:52;96622.19;;;14.34;100.00
141;BME280;65;48.778;9.160;2023-10-19T08:47:55;96619.16;;;14.47;100.00
141;BME280;65;48.778;9.160;2023-10-19T08:50:45;96626.53;;;14.61;100.00
141;BME280;65;48.778;9.160;2023-10-19T08:53:32;96618.25;;;14.72;100.00
141;BME280;65;48.778;9.160;2023-10-19T08:56:25;96617.59;;;14.78;100.00
141;BME280;65;48.778;9.160;2023-10-19T08:59:11;96614.66;;;14.90;100.00
141;BME280;65;48.778;9.160;2023-10-19T09:02:01;96611.81;;;14.91;100.00
141;BME280;65;48.778;9.160;2023-10-19T09:04:48;96607.50;;;14.98;100.00
141;BME280;65;48.778;9.160;2023-10-19T09:07:34;96613.88;;;15.05;100.00
141;BME280;65;48.778;9.160;2023-10-19T09:10:24;96608.91;;;15.10;100.00
141;BME280;65;48.778;9.160;2023-10-19T09:13:11;96608.09;;;15.34;100.00
141;BME280;65;48.778;9.160;2023-10-19T09:16:04;96610.13;;;15.81;100.00
141;BME280;65;48.778;9.160;2023-10-19T09:18:50;96605.56;;;16.06;100.00
141;BME280;65;48.778;9.160;2023-10-19T09:21:37;96608.06;;;16.24;100.00
141;BME280;65;48.778;9.160;2023-10-19T09:24:26;96596.25;;;16.02;100.00
141;BME280;65;48.778;9.160;2023-10-19T09:27:12;96610.03;;;16.30;100.00
141;BME280;65;48.778;9.160;2023-10-19T09:29:58;96601.25;;;16.68;100.00
141;BME280;65;48.778;9.160;2023-10-19T09:32:47;96600.25;;;16.61;100.00
141;BME280;65;48.778;9.160;2023-10-19T09:35:34;96592.88;;;16.71;100.00
141;BME280;65;48.778;9.160;2023-10-19T09:38:25;96580.69;;;16.85;100.00
141;BME280;65;48.778;9.160;2023-10-19T09:41:12;96581.44;;;16.94;100.00
141;BME280;65;48.778;9.160;2023-10-19T09:44:01;96575.75;;;16.97;100.00
141;BME280;65;48.778;9.160;2023-10-19T09:46:54;96568.88;;;16.80;100.00
141;BME280;65;48.778;9.160;2023-10-19T09:49:43;96579.44;;;16.96;100.00
141;BME280;65;48.778;9.160;2023-10-19T09:52:30;96572.34;;;17.11;100.00
141;BME280;65;48.778;9.160;2023-10-19T09:55:43;96576.97;;;17.17;100.00
141;BME280;65;48.778;9.160;2023-10-19T09:58:36;96574.81;;;17.13;100.00
141;BME280;65;48.778;9.160;2023-10-19T10:01:24;96571.97;;;17.14;100.00
141;BME280;65;48.778;9.160;2023-10-19T10:04:30;96575.47;;;16.92;100.00
141;BME280;65;48.778;9.160;2023-10-19T10:07:17;96576.69;;;16.81;100.00
141;BME280;65;48.778;9.160;2023-10-19T10:10:03;96579.78;;;16.93;100.00
141;BME280;65;48.778;9.160;2023-10-19T10:12:50;96579.13;;;16.91;100.00
141;BME280;65;48.778;9.160;2023-10-19T10:15:40;96570.72;;;17.02;100.00
141;BME280;65;48.778;9.160;2023-10-19T10:18:31;96572.56;;;17.01;100.00
141;BME280;65;48.778;9.160;2023-10-19T10:21:20;96571.31;;;17.12;100.00
141;BME280;65;48.778;9.160;2023-10-19T10:24:06;96557.09;;;17.20;100.00
141;BME280;65;48.778;9.160;2023-10-19T10:26:58;96566.41;;;17.24;100.00
141;BME280;65;48.778;9.160;2023-10-19T10:29:59;96562.16;;;17.37;100.00
141;BME280;65;48.778;9.160;2023-10-19T10:38:22;96560.03;;;17.70;100.00
141;BME280;65;48.778;9.160;2023-10-19T10:41:08;96554.56;;;18.01;100.00
141;BME280;65;48.778;9.160;2023-10-19T10:43:58;96559.19;;;17.93;100.00
141;BME280;65;48.778;9.160;2023-10-19T10:46:44;96559.06;;;17.63;100.00
141;BME280;65;48.778;9.160;2023-10-19T10:49:29;96556.66;;;17.54;100.00
141;BME280;65;48.778;9.160;2023-10-19T10:52:34;96564.38;;;17.49;100.00
141;BME280;65;48.778;9.160;2023-10-19T10:55:20;96559.78;;;17.43;100.00
141;BME280;65;48.778;9.160;2023-10-19T10:58:06;96560.31;;;17.38;100.00
141;BME280;65;48.778;9.160;2023-10-19T11:00:53;96563.56;;;17.25;100.00
141;BME280;65;48.778;9.160;2023-10-19T11:03:41;96563.84;;;17.30;100.00
141;BME280;65;48.778;9.160;2023-10-19T11:06:27;96567.94;;;17.18;100.00
141;BME280;65;48.778;9.160;2023-10-19T11:09:13;96561.94;;;17.16;100.00
141;BME280;65;48.778;9.160;2023-10-19T11:12:10;96564.97;;;17.13;100.00
141;BME280;65;48.778;9.160;2023-10-19T11:14:58;96562.84;;;17.08;100.00
141;BME280;65;48.778;9.160;2023-10-19T11:17:51;96559.09;;;16.95;100.00
141;BME280;65;48.778;9.160;2023-10-19T11:20:37;96562.81;;;16.86;100.00
141;BME280;65;48.778;9.160;2023-10-19T11:23:43;96562.88;;;16.78;100.00
141;BME280;65;48.778;9.160;2023-10-19T11:26:29;96556.91;;;16.67;100.00
141;BME280;65;48.778;9.160;2023-10-19T11:29:16;96557.44;;;16.55;100.00
141;BME280;65;48.778;9.160;2023-10-19T11:32:03;96556.81;;;16.44;100.00
141;BME280;65;48.778;9.160;2023-10-19T11:34:49;96554.53;;;16.33;100.00
141;BME280;65;48.778;9.160;2023-10-19T11:37:46;96556.91;;;16.20;100.00
141;BME280;65;48.778;9.160;2023-10-19T11:40:32;96561.94;;;16.07;100.00
141;BME280;65;48.778;9.160;2023-10-19T11:43:18;96556.53;;;15.76;100.00
141;BME280;65;48.778;9.160;2023-10-19T11:46:03;96564.16;;;15.55;100.00
141;BME280;65;48.778;9.160;2023-10-19T11:48:52;96551.00;;;15.45;100.00
141;BME280;65;48.778;9.160;2023-10-19T11:51:38;96555.50;;;15.36;100.00
141;BME280;65;48.778;9.160;2023-10-19T11:54:23;96545.53;;;15.38;100.00
141;BME280;65;48.778;9.160;2023-10-19T11:57:10;96528.88;;;15.36;100.00
141;BME280;65;48.778;9.160;2023-10-19T11:59:57;96525.41;;;15.36;100.00
141;BME280;65;48.778;9.160;2023-10-19T12:02:44;96516.41;;;15.37;100.00
141;BME280;65;48.778;9.160;2023-10-19T12:05:31;96514.91;;;15.42;100.00
141;BME280;65;48.778;9.160;2023-10-19T12:08:17;96502.56;;;15.49;100.00
141;BME280;65;48.778;9.160;2023-10-19T12:11:03;96509.06;;;15.55;100.00
141;BME280;65;48.778;9.160;2023-10-19T12:13:50;96501.91;;;15.47;100.00
141;BME280;65;48.778;9.160;2023-10-19T12:16:36;96497.13;;;15.35;100.00
141;BME280;65;48.778;9.160;2023-10-19T12:19:22;96492.47;;;15.21;100.00
141;BME280;65;48.778;9.160;2023-10-19T12:22:09;96486.16;;;15.22;100.00
141;BME280;65;48.778;9.160;2023-10-19T12:24:55;96474.66;;;15.21;100.00
141;BME280;65;48.778;9.160;2023-10-19T12:27:42;96480.66;;;15.23;100.00
141;BME280;65;48.778;9.160;2023-10-19T12:30:29;96491.28;;;15.31;100.00
141;BME280;65;48.778;9.160;2023-10-19T12:33:17;96475.47;;;15.38;100.00
141;BME280;65;48.778;9.160;2023-10-19T12:36:05;96463.00;;;15.38;100.00
141;BME280;65;48.778;9.160;2023-10-19T12:39:14;96448.38;;;15.26;100.00
141;BME280;65;48.778;9.160;2023-10-19T12:42:19;96452.41;;;15.14;100.00
141;BME280;65;48.778;9.160;2023-10-19T12:45:08;96449.41;;;15.09;100.00
141;BME280;65;48.778;9.160;2023-10-19T12:47:56;96452.41;;;15.06;100.00
141;BME280;65;48.778;9.160;2023-10-19T12:50:42;96464.88;;;15.05;100.00
141;BME280;65;48.778;9.160;2023-10-19T12:53:28;96468.16;;;14.99;100.00
141;BME280;65;48.778;9.160;2023-10-19T12:56:14;96474.50;;;14.98;100.00
141;BME280;65;48.778;9.160;2023-10-19T12:59:00;96472.00;;;14.97;100.00
141;BME280;65;48.778;9.160;2023-10-19T13:01:46;96473.81;;;14.96;100.00
141;BME280;65;48.778;9.160;2023-10-19T13:04:34;96479.81;;;14.98;100.00
141;BME280;65;48.778;9.160;2023-10-19T13:07:20;96477.50;;;15.03;100.00
141;BME280;65;48.778;9.160;2023-10-19T13:10:07;96480.50;;;15.08;100.00
141;BME280;65;48.778;9.160;2023-10-19T13:12:53;96485.31;;;15.13;100.00
141;BME280;65;48.778;9.160;2023-10-19T13:15:40;96475.34;;;15.15;100.00
141;BME280;65;48.778;9.160;2023-10-19T13:18:27;96467.88;;;15.10;100.00
141;BME280;65;48.778;9.160;2023-10-19T13:21:15;96469.69;;;15.10;100.00
141;BME280;65;48.778;9.160;2023-10-19T13:24:08;96469.53;;;15.11;100.00
141;BME280;65;48.778;9.160;2023-10-19T13:26:54;96454.88;;;15.15;100.00
141;BME280;65;48.778;9.160;2023-10-19T13:29:40;96460.38;;;15.22;100.00
141;BME280;65;48.778;9.160;2023-10-19T13:32:30;96447.03;;;15.30;100.00
141;BME280;65;48.778;9.160;2023-10-19T13:35:18;96453.34;;;15.37;100.00
141;BME280;65;48.778;9.160;2023-10-19T13:38:08;96452.38;;;15.30;100.00
141;BME280;65;48.778;9.160;2023-10-19T13:40:54;96447.06;;;15.22;100.00
141;BME280;65;48.778;9.160;2023-10-19T13:43:40;96440.09;;;15.13;100.00
141;BME280;65;48.778;9.160;2023-10-19T13:46:27;96440.09;;;15.05;100.00
141;BME280;65;48.778;9.160;2023-10-19T13:49:14;96428.59;;;14.96;100.00
141;BME280;65;48.778;9.160;2023-10-19T13:52:04;96432.59;;;14.92;100.00
141;BME280;65;48.778;9.160;2023-10-19T13:54:50;96433.44;;;14.93;100.00
141;BME280;65;48.778;9.160;2023-10-19T13:57:36;96434.41;;;14.92;100.00
141;BME280;65;48.778;9.160;2023-10-19T14:00:23;96427.28;;;14.92;100.00
141;BME280;65;48.778;9.160;2023-10-19T14:03:11;96413.47;;;14.97;100.00
141;BME280;65;48.778;9.160;2023-10-19T14:05:59;96403.16;;;15.02;100.00
141;BME280;65;48.778;9.160;2023-10-19T14:08:44;96404.84;;;15.11;100.00
141;BME280;65;48.778;9.160;2023-10-19T14:11:30;96399.34;;;15.12;100.00
141;BME280;65;48.778;9.160;2023-10-19T14:14:16;96403.16;;;15.10;100.00
141;BME280;65;48.778;9.160;2023-10-19T14:17:02;96399.84;;;15.08;100.00
141;BME280;65;48.778;9.160;2023-10-19T14:19:48;96401.31;;;15.02;100.00
141;BME280;65;48.778;9.160;2023-10-19T14:22:34;96401.19;;;15.04;100.00
141;BME280;65;48.778;9.160;2023-10-19T14:25:22;96404.50;;;14.98;100.00
141;BME280;65;48.778;9.160;2023-10-19T14:28:08;96396.69;;;14.96;100.00
141;BME280;65;48.778;9.160;2023-10-19T14:30:56;96393.53;;;14.93;100.00
141;BME280;65;48.778;9.160;2023-10-19T14:33:42;96388.53;;;14.90;100.00
141;BME280;65;48.778;9.160;2023-10-19T14:36:28;96371.91;;;14.87;100.00
141;BME280;65;48.778;9.160;2023-10-19T14:39:14;96368.44;;;14.87;100.00
141;BME280;65;48.778;9.160;2023-10-19T14:42:03;96364.09;;;14.86;100.00
141;BME280;65;48.778;9.160;2023-10-19T14:44:50;96363.28;;;14.85;100.00
141;BME280;65;48.778;9.160;2023-10-19T14:47:37;96357.28;;;14.83;100.00
141;BME280;65;48.778;9.160;2023-10-19T14:50:23;96365.28;;;14.83;100.00
141;BME280;65;48.778;9.160;2023-10-19T14:53:10;96358.63;;;14.79;100.00
141;BME280;65;48.778;9.160;2023-10-19T14:55:55;96356.97;;;14.78;100.00
141;BME280;65;48.778;9.160;2023-10-19T14:58:42;96350.00;;;14.77;100.00
141;BME280;65;48.778;9.160;2023-10-19T15:01:28;96346.00;;;14.73;100.00
141;BME280;65;48.778;9.160;2023-10-19T15:04:14;96348.50;;;14.75;100.00
141;BME280;65;48.778;9.160;2023-10-19T15:07:01;96328.72;;;14.77;100.00
141;BME280;65;48.778;9.160;2023-10-19T15:09:47;96321.88;;;14.83;100.00
141;BME280;65;48.778;9.160;2023-10-19T15:12:33;96319.88;;;14.85;100.00
141;BME280;65;48.778;9.160;2023-10-19T15:15:19;96316.56;;;14.91;100.00
141;BME280;65;48.778;9.160;2023-10-19T15:18:04;96304.75;;;14.94;100.00
141;BME280;65;48.778;9.160;2023-10-19T15:20:50;96292.44;;;14.93;100.00
141;BME280;65;48.778;9.160;2023-10-19T15:23:36;96298.44;;;14.86;100.00
141;BME280;65;48.778;9.160;2023-10-19T15:26:22;96295.13;;;14.84;100.00
141;BME280;65;48.778;9.160;2023-10-19T15:29:08;96290.81;;;14.83;100.00
141;BME280;65;48.778;9.160;2023-10-19T15:31:55;96299.28;;;14.79;100.00
141;BME280;65;48.778;9.160;2023-10-19T15:34:42;96295.16;;;14.76;100.00
141;BME280;65;48.778;9.160;2023-10-19T15:37:31;96295.16;;;14.76;100.00
141;BME280;65;48.778;9.160;2023-10-19T15:40:17;96285.03;;;14.72;100.00
141;BME280;65;48.778;9.160;2023-10-19T15:43:04;96270.41;;;14.68;100.00
141;BME280;65;48.778;9.160;2023-10-19T15:45:50;96264.94;;;14.61;100.00